• Join FlightAware (Why Join?)
  • Login
  • US Flag 
05:41PM EDT


 

Airport Tracker/Info


-or-


 

Live Flight TrackerFlight Track Log ✈ SLI524 ✈ 19-Aug-2013 ✈ MMMD / MID - MMMX / MEX

Flight Track Log - Related Links

Times and Time Zones

All times are in EDT time to prevent confusion due to time zone crossing. See the SLI524 flight status page for this flight to view local times or setup timezone preferences in your user account.

Time Position Orientation Groundspeed Altitude Reporting Facility
EDT Latitude Longitude Course Direction KTS MPH feet Rate Location/Type
07:35AM 20.7937 -90.7246 262° West  Level Estimated
07:36AM 20.7790 -90.8311 262° West  Level Estimated
07:37AM 20.7642 -90.9377 262° West  Level Estimated
07:38AM 20.7494 -91.0442 262° West  Level Estimated
07:39AM 20.7345 -91.1507 262° West  Level Estimated
07:40AM 20.7196 -91.2572 261° West  Level Estimated
07:41AM 20.7045 -91.3637 261° West  Level Estimated
07:42AM 20.6894 -91.4702 261° West  Level Estimated
07:43AM 20.6743 -91.5766 261° West  Level Estimated
07:44AM 20.6591 -91.6830 261° West  Level Estimated
07:45AM 20.6438 -91.7894 261° West  Level Estimated
07:46AM 20.6285 -91.8957 261° West  Level Estimated
07:47AM 20.6130 -92.0021 261° West  Level Estimated
07:48AM 20.5976 -92.1084 261° West  Level Estimated
07:49AM 20.5820 -92.2147 261° West  Level Estimated
07:50AM 20.5664 -92.3210 261° West  Level Estimated
07:51AM 20.5507 -92.4272 261° West  Level Estimated
07:52AM 20.5350 -92.5335 261° West  Level Estimated
07:53AM 20.5192 -92.6397 261° West  Level Estimated
07:54AM 20.5033 -92.7459 261° West  Level Estimated
07:55AM 20.4874 -92.8520 261° West  Level Estimated
07:56AM 20.4714 -92.9582 261° West  Level Estimated
07:57AM 20.4553 -93.0643 261° West  Level Estimated
07:58AM 20.4392 -93.1704 261° West  Level Estimated
07:59AM 20.4230 -93.2765 261° West  Level Estimated
08:00AM 20.4068 -93.3826 261° West  Level Estimated
08:01AM 20.3905 -93.4886 261° West  Level Estimated
08:02AM 20.3741 -93.5946 261° West  Level Estimated
08:03AM 20.3576 -93.7006 261° West  Level Estimated
08:04AM 20.3411 -93.8066 261° West  Level Estimated
08:05AM 20.3246 -93.9125 261° West  Level Estimated
08:06AM 20.3079 -94.0184 261° West  Level Estimated
08:07AM 20.2912 -94.1243 260° West  Level Estimated
08:08AM 20.2745 -94.2302 260° West  Level Estimated
08:09AM 20.2576 -94.3361 260° West  Level Estimated
08:10AM 20.2407 -94.4419 260° West  Level Estimated
08:11AM 20.2238 -94.5477 260° West  Level Estimated
08:12AM 20.2068 -94.6535 260° West  Level Estimated
08:13AM 20.1897 -94.7592 260° West  Level Estimated
08:14AM 20.1726 -94.8650 260° West  Level Estimated
08:15AM 20.1553 -94.9707 260° West  Level Estimated
08:16AM 20.1381 -95.0764 260° West  Level Estimated
08:17AM 20.1207 -95.1821 260° West  Level Estimated
08:18AM 20.1033 -95.2877 260° West  Level Estimated
08:19AM 20.0859 -95.3933 260° West  Level Estimated
08:20AM 20.0684 -95.4989 260° West  Level Estimated
08:21AM 20.0508 -95.6045 260° West  Level Estimated
08:22AM 20.0331 -95.7100 260° West  Level Estimated
08:23AM 20.0154 -95.8156 260° West  Level Estimated
08:24AM 19.9977 -95.9211 260° West  Level Estimated
08:25AM 19.9798 -96.0265 260° West  Level Estimated
08:26AM 19.9619 -96.1320 260° West  Level Estimated
08:27AM 19.9440 -96.2374 260° West  Level Estimated
08:28AM 19.9259 -96.3428 260° West  Level Estimated
08:29AM 19.9079 -96.4482 260° West  Level Estimated
08:30AM 19.8897 -96.5536 260° West  Level Estimated
08:31AM 19.8715 -96.6589 260° West  Level Estimated
08:32AM 19.8532 -96.7642 260° West  Level Estimated
08:33AM 19.8349 -96.8695 260° West  Level Estimated
08:34AM 19.8165 -96.9748 259° West  Level Estimated
08:35AM 19.7980 -97.0800 259° West  Level Estimated
08:36AM 19.7795 -97.1852 259° West  Level Estimated
08:37AM 19.7610 -97.2904 259° West  Level Estimated
08:38AM 19.7423 -97.3956 259° West  Level Estimated
08:39AM 19.7236 -97.5007 259° West  Level Estimated
08:40AM 19.7048 -97.6058 259° West  Level Estimated
08:41AM 19.6860 -97.7109 259° West  Level Estimated
08:42AM 19.6672 -97.8160 259° West  Level Estimated
08:43AM 19.6482 -97.9210 259° West  Level Estimated
08:44AM 19.6292 -98.0260 259° West  Level Estimated
08:45AM 19.6101 -98.1310 259° West  Level Estimated
08:46AM 19.5910 -98.2360 259° West  Level Estimated
08:47AM 19.5718 -98.3409 259° West  Level Estimated
08:48AM 19.5525 -98.4458 259° West  Level Estimated
08:49AM 19.5332 -98.5507 259° West  Level Estimated
08:50AM 19.5139 -98.6556 259° West  Level Estimated
08:51AM 19.4944 -98.7605 259° West  Level Estimated
08:52AM 19.4750 -98.8653 259° West  Level Estimated
08:53AM 19.4554 -98.9701 259° West  Level Estimated
08:54AM 19.4363 -99.0721 259° West  Level Estimated
08:55AM 19.4363 -99.0721 43° Northeast  Level Estimated
08:56AM 19.4363 -99.0721 43° Northeast  Level Estimated
08:57AM 19.4363 -99.0721 43° Northeast  Level Estimated
08:58AM 19.4363 -99.0721 43° Northeast  Level Estimated
08:59AM 19.4363 -99.0721 43° Northeast  Level Estimated
09:00AM 19.4363 -99.0721 43° Northeast  Level Estimated
09:01AM 19.4363 -99.0721 43° Northeast  Level Estimated
09:02AM 19.4363 -99.0721 43° Northeast  Level Estimated
09:03AM 19.4363 -99.0721 43° Northeast  Level Estimated
09:04AM 19.4363 -99.0721 43° Northeast  Level Estimated
09:05AM 19.4363 -99.0721 43° Northeast  Level Estimated
09:06AM 19.4363 -99.0721 43° Northeast  Level Estimated
09:07AM 19.4363 -99.0721 43° Northeast  Level Estimated
09:08AM 19.4363 -99.0721 43° Northeast  Level Estimated
09:09AM 19.4363 -99.0721 43° Northeast  Level Estimated
09:10AM 19.4363 -99.0721 43° Northeast  Level Estimated